PWSweather.com
Personal Weather Stations
Station Observations
KD0MBL
Pueblo West, Pueblo West, CO 81007

Pueblo WestPueblo West, CO 81007

Lat: 38.380276, Lon: -104.7134279

Elevation: 5220

Station Type: Davis VantageVue

Latest ConditionsUpdated 10:48:48 PM MDT Tuesday, Aug 19, 2014
Currently Today's Max Today's Min Today's Average
Temperature 70.1°F21.2°C 91.6°F33.1°C 60.1°F15.6°C 75.1°F23.9°C
Dew Point 51.7°F10.9°C 52.9°F11.6°C 41.8°F5.4°C 47.9°F8.8°C
Winds 2.0 mph WNW3.2 kmh WNW 18.0 mph S29.0 kmh S - 4.3 mph 6.9 kmh
Wind Gusts 5.0 mph8.0 kmh 30.0 mph48.3 kmh - -
Humidity 52% 63% 20% 41%
Pressure 29.60 in1002.4 mb 29.75 in1007.5 mb 29.54 in1000.3 mb -
Hour Temp Dew Point Humidity Winds Wind Gusts Pressure Precip Precip Rate Daily Precip Total
10:48 PM 70.1°F21.2°C 51.7°F10.9°C 52% 2.0 mph WNW3.2 kmh WNW 5.0 mph8.0 kmh 29.60 in1002.4 mb 0.00 in0.0 mm 0.00 in/hr0.0 mm/hr 0.00 in0.0 mm
10:38 PM 70.2°F21.2°C 51.7°F10.9°C 52% 2.0 mph NW3.2 kmh NW 4.0 mph6.4 kmh 29.60 in1002.4 mb 0.00 in0.0 mm 0.00 in/hr0.0 mm/hr 0.00 in0.0 mm
10:28 PM 70.9°F21.6°C 51.9°F11.1°C 51% 3.0 mph NW4.8 kmh NW 5.0 mph8.0 kmh 29.60 in1002.4 mb 0.00 in0.0 mm 0.00 in/hr0.0 mm/hr 0.00 in0.0 mm
10:18 PM 71.0°F21.7°C 51.4°F10.8°C 50% 2.0 mph WNW3.2 kmh WNW 5.0 mph8.0 kmh 29.60 in1002.4 mb 0.00 in0.0 mm 0.00 in/hr0.0 mm/hr 0.00 in0.0 mm
10:08 PM 70.6°F21.4°C 51.6°F10.9°C 51% Calm Calm 1.0 mph1.6 kmh 29.60 in1002.4 mb 0.00 in0.0 mm 0.00 in/hr0.0 mm/hr 0.00 in0.0 mm
09:58 PM 70.2°F21.2°C 51.7°F10.9°C 52% Calm Calm -- 29.61 in1002.7 mb 0.00 in0.0 mm 0.00 in/hr0.0 mm/hr 0.00 in0.0 mm
09:48 PM 69.9°F21.1°C 50.9°F10.5°C 51% Calm Calm -- 29.61 in1002.7 mb 0.00 in0.0 mm 0.00 in/hr0.0 mm/hr 0.00 in0.0 mm
09:38 PM 70.0°F21.1°C 51.6°F10.9°C 52% Calm Calm -- 29.60 in1002.4 mb 0.00 in0.0 mm 0.00 in/hr0.0 mm/hr 0.00 in0.0 mm
09:28 PM 70.4°F21.3°C 51.9°F11.1°C 52% Calm Calm -- 29.59 in1002.0 mb 0.00 in0.0 mm 0.00 in/hr0.0 mm/hr 0.00 in0.0 mm
09:18 PM 71.0°F21.7°C 52.0°F11.1°C 51% Calm Calm -- 29.59 in1002.0 mb 0.00 in0.0 mm 0.00 in/hr0.0 mm/hr 0.00 in0.0 mm
09:08 PM 71.8°F22.1°C 52.7°F11.5°C 51% Calm Calm -- 29.59 in1002.0 mb 0.00 in0.0 mm 0.00 in/hr0.0 mm/hr 0.00 in0.0 mm
08:58 PM 73.0°F22.8°C 51.6°F10.9°C 47% Calm Calm -- 29.59 in1002.0 mb 0.00 in0.0 mm 0.00 in/hr0.0 mm/hr 0.00 in0.0 mm
08:48 PM 72.7°F22.6°C 51.9°F11.1°C 48% Calm Calm -- 29.59 in1002.0 mb 0.00 in0.0 mm 0.00 in/hr0.0 mm/hr 0.00 in0.0 mm
08:38 PM 72.8°F22.7°C 52.0°F11.1°C 48% Calm Calm 2.0 mph3.2 kmh 29.58 in1001.7 mb 0.00 in0.0 mm 0.00 in/hr0.0 mm/hr 0.00 in0.0 mm
08:28 PM 73.2°F22.9°C 52.3°F11.3°C 48% 2.0 mph W3.2 kmh W 4.0 mph6.4 kmh 29.58 in1001.7 mb 0.00 in0.0 mm 0.00 in/hr0.0 mm/hr 0.00 in0.0 mm
08:18 PM 73.9°F23.3°C 52.4°F11.3°C 47% 2.0 mph WSW3.2 kmh WSW 7.0 mph11.3 kmh 29.58 in1001.7 mb 0.00 in0.0 mm 0.00 in/hr0.0 mm/hr 0.00 in0.0 mm
08:08 PM 75.0°F23.9°C 51.0°F10.6°C 43% 1.0 mph WSW1.6 kmh WSW 3.0 mph4.8 kmh 29.57 in1001.4 mb 0.00 in0.0 mm 0.00 in/hr0.0 mm/hr 0.00 in0.0 mm
07:58 PM 76.3°F24.6°C 50.9°F10.5°C 41% 2.0 mph SE3.2 kmh SE 4.0 mph6.4 kmh 29.57 in1001.4 mb 0.00 in0.0 mm 0.00 in/hr0.0 mm/hr 0.00 in0.0 mm
07:48 PM 76.0°F24.4°C 49.2°F9.6°C 39% 1.0 mph SE1.6 kmh SE 3.0 mph4.8 kmh 29.57 in1001.4 mb 0.00 in0.0 mm 0.00 in/hr0.0 mm/hr 0.00 in0.0 mm
07:38 PM 76.0°F24.4°C 51.2°F10.7°C 42% 2.0 mph ESE3.2 kmh ESE 5.0 mph8.0 kmh 29.57 in1001.4 mb 0.00 in0.0 mm 0.00 in/hr0.0 mm/hr 0.00 in0.0 mm
07:28 PM 76.6°F24.8°C 51.8°F11.0°C 42% 4.0 mph NE6.4 kmh NE 9.0 mph14.5 kmh 29.57 in1001.4 mb 0.00 in0.0 mm 0.00 in/hr0.0 mm/hr 0.00 in0.0 mm
07:18 PM 77.1°F25.1°C 52.9°F11.6°C 43% 2.0 mph NNE3.2 kmh NNE 6.0 mph9.7 kmh 29.56 in1001.0 mb 0.00 in0.0 mm 0.00 in/hr0.0 mm/hr 0.00 in0.0 mm
07:08 PM 77.1°F25.1°C 50.9°F10.5°C 40% 4.0 mph WSW6.4 kmh WSW 5.0 mph8.0 kmh 29.56 in1001.0 mb 0.00 in0.0 mm 0.00 in/hr0.0 mm/hr 0.00 in0.0 mm
06:58 PM 78.5°F25.8°C 52.2°F11.2°C 40% 4.0 mph WSW6.4 kmh WSW 7.0 mph11.3 kmh 29.55 in1000.7 mb 0.00 in0.0 mm 0.00 in/hr0.0 mm/hr 0.00 in0.0 mm
06:48 PM 79.9°F26.6°C 51.3°F10.7°C 37% 3.0 mph S4.8 kmh S 9.0 mph14.5 kmh 29.55 in1000.7 mb 0.00 in0.0 mm 0.00 in/hr0.0 mm/hr 0.00 in0.0 mm
06:38 PM 80.7°F27.1°C 50.5°F10.3°C 35% 2.0 mph ENE3.2 kmh ENE 6.0 mph9.7 kmh 29.55 in1000.7 mb 0.00 in0.0 mm 0.00 in/hr0.0 mm/hr 0.00 in0.0 mm
06:28 PM 80.2°F26.8°C 50.1°F10.1°C 35% 5.0 mph NW8.0 kmh NW 12.0 mph19.3 kmh 29.55 in1000.7 mb 0.00 in0.0 mm 0.00 in/hr0.0 mm/hr 0.00 in0.0 mm
06:18 PM 78.6°F25.9°C 50.1°F10.1°C 37% 6.0 mph NW9.7 kmh NW 15.0 mph24.1 kmh 29.56 in1001.0 mb 0.00 in0.0 mm 0.00 in/hr0.0 mm/hr 0.00 in0.0 mm
06:08 PM 78.7°F25.9°C 50.2°F10.1°C 37% 13.0 mph WNW20.9 kmh WNW 25.0 mph40.2 kmh 29.56 in1001.0 mb 0.00 in0.0 mm 0.00 in/hr0.0 mm/hr 0.00 in0.0 mm
05:58 PM 81.0°F27.2°C 48.4°F9.1°C 32% 9.0 mph W14.5 kmh W 14.0 mph22.5 kmh 29.56 in1001.0 mb 0.00 in0.0 mm 0.00 in/hr0.0 mm/hr 0.00 in0.0 mm
05:48 PM 81.5°F27.5°C 47.9°F8.8°C 31% 8.0 mph SW12.9 kmh SW 13.0 mph20.9 kmh 29.56 in1001.0 mb 0.00 in0.0 mm 0.00 in/hr0.0 mm/hr 0.00 in0.0 mm
05:38 PM 82.4°F28.0°C 46.9°F8.3°C 29% 9.0 mph SSW14.5 kmh SSW 15.0 mph24.1 kmh 29.56 in1001.0 mb 0.00 in0.0 mm 0.00 in/hr0.0 mm/hr 0.00 in0.0 mm
05:28 PM 83.2°F28.4°C 46.7°F8.2°C 28% 13.0 mph SSW20.9 kmh SSW 23.0 mph37.0 kmh 29.56 in1001.0 mb 0.00 in0.0 mm 0.00 in/hr0.0 mm/hr 0.00 in0.0 mm
05:18 PM 83.6°F28.7°C 45.1°F7.3°C 26% 14.0 mph S22.5 kmh S 25.0 mph40.2 kmh 29.56 in1001.0 mb 0.00 in0.0 mm 0.00 in/hr0.0 mm/hr 0.00 in0.0 mm
05:08 PM 83.7°F28.7°C 46.2°F7.9°C 27% 17.0 mph S27.4 kmh S 24.0 mph38.6 kmh 29.56 in1001.0 mb 0.00 in0.0 mm 0.00 in/hr0.0 mm/hr 0.00 in0.0 mm
04:58 PM 85.1°F29.5°C 46.4°F8.0°C 26% 16.0 mph S25.7 kmh S 23.0 mph37.0 kmh 29.55 in1000.7 mb 0.00 in0.0 mm 0.00 in/hr0.0 mm/hr 0.00 in0.0 mm
04:48 PM 86.2°F30.1°C 44.0°F6.7°C 23% 18.0 mph S29.0 kmh S 29.0 mph46.7 kmh 29.55 in1000.7 mb 0.00 in0.0 mm 0.00 in/hr0.0 mm/hr 0.00 in0.0 mm
04:38 PM 87.2°F30.7°C 43.7°F6.5°C 22% 10.0 mph S16.1 kmh S 19.0 mph30.6 kmh 29.54 in1000.3 mb 0.00 in0.0 mm 0.00 in/hr0.0 mm/hr 0.00 in0.0 mm
04:28 PM 87.9°F31.1°C 45.5°F7.5°C 23% 8.0 mph S12.9 kmh S 16.0 mph25.7 kmh 29.54 in1000.3 mb 0.00 in0.0 mm 0.00 in/hr0.0 mm/hr 0.00 in0.0 mm
04:18 PM 88.6°F31.4°C 47.2°F8.4°C 24% 11.0 mph S17.7 kmh S 19.0 mph30.6 kmh 29.54 in1000.3 mb 0.00 in0.0 mm 0.00 in/hr0.0 mm/hr 0.00 in0.0 mm
04:08 PM 88.9°F31.6°C 46.3°F7.9°C 23% 12.0 mph S19.3 kmh S 21.0 mph33.8 kmh 29.54 in1000.3 mb 0.00 in0.0 mm 0.00 in/hr0.0 mm/hr 0.00 in0.0 mm
03:58 PM 89.3°F31.8°C 45.5°F7.5°C 22% 13.0 mph S20.9 kmh S 20.0 mph32.2 kmh 29.54 in1000.3 mb 0.00 in0.0 mm 0.00 in/hr0.0 mm/hr 0.00 in0.0 mm
03:48 PM 89.5°F31.9°C 45.6°F7.6°C 22% 6.0 mph S9.7 kmh S 15.0 mph24.1 kmh 29.54 in1000.3 mb 0.00 in0.0 mm 0.00 in/hr0.0 mm/hr 0.00 in0.0 mm
03:38 PM 90.2°F32.3°C 43.7°F6.5°C 20% 4.0 mph S6.4 kmh S 8.0 mph12.9 kmh 29.54 in1000.3 mb 0.00 in0.0 mm 0.00 in/hr0.0 mm/hr 0.00 in0.0 mm
03:28 PM 88.9°F31.6°C 46.3°F7.9°C 23% 5.0 mph SE8.0 kmh SE 11.0 mph17.7 kmh 29.54 in1000.3 mb 0.00 in0.0 mm 0.00 in/hr0.0 mm/hr 0.00 in0.0 mm
03:18 PM 87.5°F30.8°C 42.8°F6.0°C 21% 6.0 mph SE9.7 kmh SE 14.0 mph22.5 kmh 29.54 in1000.3 mb 0.00 in0.0 mm 0.00 in/hr0.0 mm/hr 0.00 in0.0 mm
03:08 PM 87.0°F30.6°C 43.6°F6.4°C 22% 10.0 mph SSE16.1 kmh SSE 16.0 mph25.7 kmh 29.54 in1000.3 mb 0.00 in0.0 mm 0.00 in/hr0.0 mm/hr 0.00 in0.0 mm
02:58 PM 87.0°F30.6°C 44.7°F7.1°C 23% 17.0 mph S27.4 kmh S 30.0 mph48.3 kmh 29.55 in1000.7 mb 0.00 in0.0 mm 0.00 in/hr0.0 mm/hr 0.00 in0.0 mm
02:48 PM 87.7°F30.9°C 44.1°F6.7°C 22% 11.0 mph SSW17.7 kmh SSW 24.0 mph38.6 kmh 29.55 in1000.7 mb 0.00 in0.0 mm 0.00 in/hr0.0 mm/hr 0.00 in0.0 mm
02:38 PM 87.9°F31.1°C 41.8°F5.4°C 20% 9.0 mph S14.5 kmh S 19.0 mph30.6 kmh 29.56 in1001.0 mb 0.00 in0.0 mm 0.00 in/hr0.0 mm/hr 0.00 in0.0 mm
02:28 PM 88.4°F31.3°C 43.5°F6.4°C 21% 8.0 mph S12.9 kmh S 13.0 mph20.9 kmh 29.56 in1001.0 mb 0.00 in0.0 mm 0.00 in/hr0.0 mm/hr 0.00 in0.0 mm
02:18 PM 89.2°F31.8°C 45.4°F7.4°C 22% 8.0 mph S12.9 kmh S 13.0 mph20.9 kmh 29.55 in1000.7 mb 0.00 in0.0 mm 0.00 in/hr0.0 mm/hr 0.00 in0.0 mm
02:08 PM 89.5°F31.9°C 45.6°F7.6°C 22% 9.0 mph S14.5 kmh S 14.0 mph22.5 kmh 29.56 in1001.0 mb 0.00 in0.0 mm 0.00 in/hr0.0 mm/hr 0.00 in0.0 mm
01:58 PM 91.6°F33.1°C 46.1°F7.8°C 21% 8.0 mph S12.9 kmh S 17.0 mph27.4 kmh 29.56 in1001.0 mb 0.00 in0.0 mm 0.00 in/hr0.0 mm/hr 0.00 in0.0 mm
01:48 PM 90.3°F32.4°C 47.5°F8.6°C 23% 3.0 mph SE4.8 kmh SE 9.0 mph14.5 kmh 29.56 in1001.0 mb 0.00 in0.0 mm 0.00 in/hr0.0 mm/hr 0.00 in0.0 mm
01:38 PM 89.8°F32.1°C 43.4°F6.3°C 20% 5.0 mph SSW8.0 kmh SSW 9.0 mph14.5 kmh 29.57 in1001.4 mb 0.00 in0.0 mm 0.00 in/hr0.0 mm/hr 0.00 in0.0 mm
01:28 PM 89.5°F31.9°C 44.4°F6.9°C 21% 7.0 mph SE11.3 kmh SE 15.0 mph24.1 kmh 29.57 in1001.4 mb 0.00 in0.0 mm 0.00 in/hr0.0 mm/hr 0.00 in0.0 mm
01:18 PM 90.3°F32.4°C 43.8°F6.6°C 20% 7.0 mph SE11.3 kmh SE 14.0 mph22.5 kmh 29.58 in1001.7 mb 0.00 in0.0 mm 0.00 in/hr0.0 mm/hr 0.00 in0.0 mm
01:08 PM 88.7°F31.5°C 45.0°F7.2°C 22% 7.0 mph SE11.3 kmh SE 12.0 mph19.3 kmh 29.58 in1001.7 mb 0.00 in0.0 mm 0.00 in/hr0.0 mm/hr 0.00 in0.0 mm
12:58 PM 88.7°F31.5°C 47.3°F8.5°C 24% 5.0 mph ENE8.0 kmh ENE 11.0 mph17.7 kmh 29.59 in1002.0 mb 0.00 in0.0 mm 0.00 in/hr0.0 mm/hr 0.00 in0.0 mm
12:48 PM 88.4°F31.3°C 48.1°F8.9°C 25% 5.0 mph E8.0 kmh E 10.0 mph16.1 kmh 29.59 in1002.0 mb 0.00 in0.0 mm 0.00 in/hr0.0 mm/hr 0.00 in0.0 mm
12:38 PM 88.0°F31.1°C 46.7°F8.2°C 24% 4.0 mph E6.4 kmh E 11.0 mph17.7 kmh 29.60 in1002.4 mb 0.00 in0.0 mm 0.00 in/hr0.0 mm/hr 0.00 in0.0 mm
12:28 PM 87.7°F30.9°C 46.4°F8.0°C 24% 5.0 mph ESE8.0 kmh ESE 9.0 mph14.5 kmh 29.60 in1002.4 mb 0.00 in0.0 mm 0.00 in/hr0.0 mm/hr 0.00 in0.0 mm
12:18 PM 86.7°F30.4°C 47.7°F8.7°C 26% 5.0 mph ENE8.0 kmh ENE 7.0 mph11.3 kmh 29.61 in1002.7 mb 0.00 in0.0 mm 0.00 in/hr0.0 mm/hr 0.00 in0.0 mm
12:08 PM 85.9°F29.9°C 50.0°F10.0°C 29% 5.0 mph ENE8.0 kmh ENE 9.0 mph14.5 kmh 29.61 in1002.7 mb 0.00 in0.0 mm 0.00 in/hr0.0 mm/hr 0.00 in0.0 mm
11:58 AM 85.2°F29.6°C 48.4°F9.1°C 28% 5.0 mph ENE8.0 kmh ENE 8.0 mph12.9 kmh 29.61 in1002.7 mb 0.00 in0.0 mm 0.00 in/hr0.0 mm/hr 0.00 in0.0 mm
11:48 AM 84.8°F29.3°C 49.0°F9.4°C 29% 4.0 mph E6.4 kmh E 8.0 mph12.9 kmh 29.62 in1003.0 mb 0.00 in0.0 mm 0.00 in/hr0.0 mm/hr 0.00 in0.0 mm
11:38 AM 85.0°F29.4°C 50.1°F10.1°C 30% 4.0 mph E6.4 kmh E 9.0 mph14.5 kmh 29.63 in1003.4 mb 0.00 in0.0 mm 0.00 in/hr0.0 mm/hr 0.00 in0.0 mm
11:28 AM 85.0°F29.4°C 50.1°F10.1°C 30% 3.0 mph SE4.8 kmh SE 5.0 mph8.0 kmh 29.64 in1003.7 mb 0.00 in0.0 mm 0.00 in/hr0.0 mm/hr 0.00 in0.0 mm
11:18 AM 83.1°F28.4°C 50.2°F10.1°C 32% 2.0 mph E3.2 kmh E 7.0 mph11.3 kmh 29.64 in1003.7 mb 0.00 in0.0 mm 0.00 in/hr0.0 mm/hr 0.00 in0.0 mm
11:08 AM 82.4°F28.0°C 49.6°F9.8°C 32% 3.0 mph NE4.8 kmh NE 9.0 mph14.5 kmh 29.65 in1004.1 mb 0.00 in0.0 mm 0.00 in/hr0.0 mm/hr 0.00 in0.0 mm
10:58 AM 82.0°F27.8°C 47.5°F8.6°C 30% 2.0 mph W3.2 kmh W 5.0 mph8.0 kmh 29.65 in1004.1 mb 0.00 in0.0 mm 0.00 in/hr0.0 mm/hr 0.00 in0.0 mm
10:48 AM 81.5°F27.5°C 48.8°F9.3°C 32% 1.0 mph N1.6 kmh N 5.0 mph8.0 kmh 29.66 in1004.4 mb 0.00 in0.0 mm 0.00 in/hr0.0 mm/hr 0.00 in0.0 mm
10:38 AM 80.1°F26.7°C 49.2°F9.6°C 34% 2.0 mph NNE3.2 kmh NNE 4.0 mph6.4 kmh 29.66 in1004.4 mb 0.00 in0.0 mm 0.00 in/hr0.0 mm/hr 0.00 in0.0 mm
10:28 AM 79.6°F26.4°C 49.5°F9.7°C 35% 1.0 mph WNW1.6 kmh WNW 5.0 mph8.0 kmh 29.66 in1004.4 mb 0.00 in0.0 mm 0.00 in/hr0.0 mm/hr 0.00 in0.0 mm
10:18 AM 78.0°F25.6°C 48.1°F8.9°C 35% 3.0 mph WNW4.8 kmh WNW 6.0 mph9.7 kmh 29.67 in1004.7 mb 0.00 in0.0 mm 0.00 in/hr0.0 mm/hr 0.00 in0.0 mm
10:08 AM 77.0°F25.0°C 49.4°F9.7°C 38% 3.0 mph W4.8 kmh W 6.0 mph9.7 kmh 29.67 in1004.7 mb 0.00 in0.0 mm 0.00 in/hr0.0 mm/hr 0.00 in0.0 mm
09:58 AM 75.6°F24.2°C 46.8°F8.2°C 36% 5.0 mph WSW8.0 kmh WSW 8.0 mph12.9 kmh 29.68 in1005.1 mb 0.00 in0.0 mm 0.00 in/hr0.0 mm/hr 0.00 in0.0 mm
09:48 AM 74.5°F23.6°C 47.2°F8.4°C 38% 5.0 mph WSW8.0 kmh WSW 8.0 mph12.9 kmh 29.68 in1005.1 mb 0.00 in0.0 mm 0.00 in/hr0.0 mm/hr 0.00 in0.0 mm
09:38 AM 73.1°F22.8°C 48.6°F9.2°C 42% 3.0 mph SW4.8 kmh SW 7.0 mph11.3 kmh 29.68 in1005.1 mb 0.00 in0.0 mm 0.00 in/hr0.0 mm/hr 0.00 in0.0 mm
09:28 AM 72.2°F22.3°C 48.5°F9.2°C 43% 2.0 mph SSW3.2 kmh SSW 4.0 mph6.4 kmh 29.69 in1005.4 mb 0.00 in0.0 mm 0.00 in/hr0.0 mm/hr 0.00 in0.0 mm
09:18 AM 70.9°F21.6°C 47.9°F8.8°C 44% 2.0 mph SW3.2 kmh SW 5.0 mph8.0 kmh 29.69 in1005.4 mb 0.00 in0.0 mm 0.00 in/hr0.0 mm/hr 0.00 in0.0 mm
09:08 AM 70.5°F21.4°C 48.1°F8.9°C 45% 2.0 mph SW3.2 kmh SW 4.0 mph6.4 kmh 29.69 in1005.4 mb 0.00 in0.0 mm 0.00 in/hr0.0 mm/hr 0.00 in0.0 mm
08:58 AM 70.6°F21.4°C 48.8°F9.3°C 46% 2.0 mph S3.2 kmh S 5.0 mph8.0 kmh 29.69 in1005.4 mb 0.00 in0.0 mm 0.00 in/hr0.0 mm/hr 0.00 in0.0 mm
08:48 AM 69.3°F20.7°C 48.2°F9.0°C 47% Calm Calm -- 29.70 in1005.8 mb 0.00 in0.0 mm 0.00 in/hr0.0 mm/hr 0.00 in0.0 mm
08:38 AM 68.0°F20.0°C 48.7°F9.3°C 50% Calm Calm -- 29.69 in1005.4 mb 0.00 in0.0 mm 0.00 in/hr0.0 mm/hr 0.00 in0.0 mm
08:28 AM 66.6°F19.2°C 48.4°F9.1°C 52% Calm Calm -- 29.69 in1005.4 mb 0.00 in0.0 mm 0.00 in/hr0.0 mm/hr 0.00 in0.0 mm
08:18 AM 64.8°F18.2°C 48.2°F9.0°C 55% Calm Calm -- 29.70 in1005.8 mb 0.00 in0.0 mm 0.00 in/hr0.0 mm/hr 0.00 in0.0 mm
08:08 AM 63.8°F17.7°C 48.7°F9.3°C 58% Calm Calm 2.0 mph3.2 kmh 29.70 in1005.8 mb 0.00 in0.0 mm 0.00 in/hr0.0 mm/hr 0.00 in0.0 mm
07:58 AM 63.2°F17.3°C 48.2°F9.0°C 58% 1.0 mph SSW1.6 kmh SSW 2.0 mph3.2 kmh 29.70 in1005.8 mb 0.00 in0.0 mm 0.00 in/hr0.0 mm/hr 0.00 in0.0 mm
07:48 AM 62.8°F17.1°C 47.8°F8.8°C 58% 1.0 mph SSW1.6 kmh SSW 2.0 mph3.2 kmh 29.70 in1005.8 mb 0.00 in0.0 mm 0.00 in/hr0.0 mm/hr 0.00 in0.0 mm
07:38 AM 62.3°F16.8°C 46.9°F8.3°C 57% 2.0 mph SSW3.2 kmh SSW 3.0 mph4.8 kmh 29.70 in1005.8 mb 0.00 in0.0 mm 0.00 in/hr0.0 mm/hr 0.00 in0.0 mm
07:28 AM 62.0°F16.7°C 48.4°F9.1°C 61% 1.0 mph SSE1.6 kmh SSE 5.0 mph8.0 kmh 29.70 in1005.8 mb 0.00 in0.0 mm 0.00 in/hr0.0 mm/hr 0.00 in0.0 mm
07:18 AM 62.0°F16.7°C 47.5°F8.6°C 59% Calm Calm -- 29.70 in1005.8 mb 0.00 in0.0 mm 0.00 in/hr0.0 mm/hr 0.00 in0.0 mm
07:08 AM 61.0°F16.1°C 47.4°F8.6°C 61% Calm Calm -- 29.70 in1005.8 mb 0.00 in0.0 mm 0.00 in/hr0.0 mm/hr 0.00 in0.0 mm
06:58 AM 60.1°F15.6°C 47.0°F8.3°C 62% Calm Calm 1.0 mph1.6 kmh 29.70 in1005.8 mb 0.00 in0.0 mm 0.00 in/hr0.0 mm/hr 0.00 in0.0 mm
06:48 AM 60.2°F15.7°C 47.1°F8.4°C 62% Calm Calm 2.0 mph3.2 kmh 29.70 in1005.8 mb 0.00 in0.0 mm 0.00 in/hr0.0 mm/hr 0.00 in0.0 mm
06:38 AM 60.6°F15.9°C 47.5°F8.6°C 62% 2.0 mph WSW3.2 kmh WSW 4.0 mph6.4 kmh 29.70 in1005.8 mb 0.00 in0.0 mm 0.00 in/hr0.0 mm/hr 0.00 in0.0 mm
06:28 AM 60.2°F15.7°C 47.6°F8.7°C 63% 2.0 mph W3.2 kmh W 4.0 mph6.4 kmh 29.70 in1005.8 mb 0.00 in0.0 mm 0.00 in/hr0.0 mm/hr 0.00 in0.0 mm
06:18 AM 62.1°F16.7°C 46.7°F8.2°C 57% 2.0 mph W3.2 kmh W 3.0 mph4.8 kmh 29.69 in1005.4 mb 0.00 in0.0 mm 0.00 in/hr0.0 mm/hr 0.00 in0.0 mm
06:08 AM 62.6°F17.0°C 47.1°F8.4°C 57% 1.0 mph W1.6 kmh W 3.0 mph4.8 kmh 29.69 in1005.4 mb 0.00 in0.0 mm 0.00 in/hr0.0 mm/hr 0.00 in0.0 mm
05:58 AM 62.4°F16.9°C 46.5°F8.1°C 56% 1.0 mph W1.6 kmh W 2.0 mph3.2 kmh 29.68 in1005.1 mb 0.00 in0.0 mm 0.00 in/hr0.0 mm/hr 0.00 in0.0 mm
05:48 AM 63.2°F17.3°C 47.2°F8.4°C 56% 1.0 mph W1.6 kmh W 2.0 mph3.2 kmh 29.69 in1005.4 mb 0.00 in0.0 mm 0.00 in/hr0.0 mm/hr 0.00 in0.0 mm
05:38 AM 63.5°F17.5°C 47.0°F8.3°C 55% 2.0 mph W3.2 kmh W 4.0 mph6.4 kmh 29.69 in1005.4 mb 0.00 in0.0 mm 0.00 in/hr0.0 mm/hr 0.00 in0.0 mm
05:28 AM 63.5°F17.5°C 47.0°F8.3°C 55% 5.0 mph WSW8.0 kmh WSW 6.0 mph9.7 kmh 29.69 in1005.4 mb 0.00 in0.0 mm 0.00 in/hr0.0 mm/hr 0.00 in0.0 mm
05:18 AM 64.5°F18.1°C 47.5°F8.6°C 54% 4.0 mph W6.4 kmh W 6.0 mph9.7 kmh 29.69 in1005.4 mb 0.00 in0.0 mm 0.00 in/hr0.0 mm/hr 0.00 in0.0 mm
05:08 AM 65.2°F18.4°C 48.1°F8.9°C 54% 5.0 mph WSW8.0 kmh WSW 8.0 mph12.9 kmh 29.70 in1005.8 mb 0.00 in0.0 mm 0.00 in/hr0.0 mm/hr 0.00 in0.0 mm
04:58 AM 64.7°F18.2°C 48.6°F9.2°C 56% 5.0 mph WSW8.0 kmh WSW 8.0 mph12.9 kmh 29.70 in1005.8 mb 0.00 in0.0 mm 0.00 in/hr0.0 mm/hr 0.00 in0.0 mm
04:48 AM 65.1°F18.4°C 49.0°F9.4°C 56% 3.0 mph SW4.8 kmh SW 6.0 mph9.7 kmh 29.69 in1005.4 mb 0.00 in0.0 mm 0.00 in/hr0.0 mm/hr 0.00 in0.0 mm
04:38 AM 67.6°F19.8°C 48.8°F9.3°C 51% 2.0 mph NW3.2 kmh NW 6.0 mph9.7 kmh 29.69 in1005.4 mb 0.00 in0.0 mm 0.00 in/hr0.0 mm/hr 0.00 in0.0 mm
04:28 AM 68.5°F20.3°C 49.1°F9.5°C 50% 4.0 mph NNW6.4 kmh NNW 8.0 mph12.9 kmh 29.69 in1005.4 mb 0.00 in0.0 mm 0.00 in/hr0.0 mm/hr 0.00 in0.0 mm
04:18 AM 68.6°F20.3°C 49.2°F9.6°C 50% 4.0 mph NNW6.4 kmh NNW 8.0 mph12.9 kmh 29.69 in1005.4 mb 0.00 in0.0 mm 0.00 in/hr0.0 mm/hr 0.00 in0.0 mm
04:08 AM 68.9°F20.5°C 48.4°F9.1°C 48% 5.0 mph NNW8.0 kmh NNW 11.0 mph17.7 kmh 29.70 in1005.8 mb 0.00 in0.0 mm 0.00 in/hr0.0 mm/hr 0.00 in0.0 mm
03:58 AM 68.8°F20.4°C 48.3°F9.1°C 48% 6.0 mph NNW9.7 kmh NNW 10.0 mph16.1 kmh 29.70 in1005.8 mb 0.00 in0.0 mm 0.00 in/hr0.0 mm/hr 0.00 in0.0 mm
03:48 AM 68.5°F20.3°C 48.0°F8.9°C 48% 6.0 mph N9.7 kmh N 12.0 mph19.3 kmh 29.70 in1005.8 mb 0.00 in0.0 mm 0.00 in/hr0.0 mm/hr 0.00 in0.0 mm
03:38 AM 68.0°F20.0°C 47.6°F8.7°C 48% 7.0 mph NNW11.3 kmh NNW 11.0 mph17.7 kmh 29.70 in1005.8 mb 0.00 in0.0 mm 0.00 in/hr0.0 mm/hr 0.00 in0.0 mm
03:28 AM 67.3°F19.6°C 47.5°F8.6°C 49% 6.0 mph N9.7 kmh N 11.0 mph17.7 kmh 29.70 in1005.8 mb 0.00 in0.0 mm 0.00 in/hr0.0 mm/hr 0.00 in0.0 mm
03:18 AM 67.3°F19.6°C 47.5°F8.6°C 49% 6.0 mph N9.7 kmh N 10.0 mph16.1 kmh 29.70 in1005.8 mb 0.00 in0.0 mm 0.00 in/hr0.0 mm/hr 0.00 in0.0 mm
03:08 AM 67.7°F19.8°C 47.3°F8.5°C 48% 6.0 mph N9.7 kmh N 9.0 mph14.5 kmh 29.70 in1005.8 mb 0.00 in0.0 mm 0.00 in/hr0.0 mm/hr 0.00 in0.0 mm
02:58 AM 68.1°F20.1°C 47.7°F8.7°C 48% 5.0 mph N8.0 kmh N 9.0 mph14.5 kmh 29.71 in1006.1 mb 0.00 in0.0 mm 0.00 in/hr0.0 mm/hr 0.00 in0.0 mm
02:48 AM 68.3°F20.2°C 47.3°F8.5°C 47% 5.0 mph N8.0 kmh N 9.0 mph14.5 kmh 29.71 in1006.1 mb 0.00 in0.0 mm 0.00 in/hr0.0 mm/hr 0.00 in0.0 mm
02:38 AM 68.4°F20.2°C 47.4°F8.6°C 47% 5.0 mph NNE8.0 kmh NNE 9.0 mph14.5 kmh 29.72 in1006.4 mb 0.00 in0.0 mm 0.00 in/hr0.0 mm/hr 0.00 in0.0 mm
02:28 AM 68.3°F20.2°C 47.3°F8.5°C 47% 5.0 mph N8.0 kmh N 7.0 mph11.3 kmh 29.72 in1006.4 mb 0.00 in0.0 mm 0.00 in/hr0.0 mm/hr 0.00 in0.0 mm
02:18 AM 67.8°F19.9°C 46.8°F8.2°C 47% 4.0 mph NNE6.4 kmh NNE 6.0 mph9.7 kmh 29.73 in1006.8 mb 0.00 in0.0 mm 0.00 in/hr0.0 mm/hr 0.00 in0.0 mm
02:08 AM 68.5°F20.3°C 46.9°F8.3°C 46% 3.0 mph N4.8 kmh N 4.0 mph6.4 kmh 29.73 in1006.8 mb 0.00 in0.0 mm 0.00 in/hr0.0 mm/hr 0.00 in0.0 mm
01:58 AM 69.5°F20.8°C 46.6°F8.1°C 44% 3.0 mph N4.8 kmh N 6.0 mph9.7 kmh 29.73 in1006.8 mb 0.00 in0.0 mm 0.00 in/hr0.0 mm/hr 0.00 in0.0 mm
01:48 AM 69.3°F20.7°C 46.4°F8.0°C 44% 4.0 mph NNW6.4 kmh NNW 6.0 mph9.7 kmh 29.73 in1006.8 mb 0.00 in0.0 mm 0.00 in/hr0.0 mm/hr 0.00 in0.0 mm
01:38 AM 69.3°F20.7°C 46.4°F8.0°C 44% 4.0 mph NNW6.4 kmh NNW 6.0 mph9.7 kmh 29.74 in1007.1 mb 0.00 in0.0 mm 0.00 in/hr0.0 mm/hr 0.00 in0.0 mm
01:28 AM 69.6°F20.9°C 46.1°F7.8°C 43% 3.0 mph NNW4.8 kmh NNW 5.0 mph8.0 kmh 29.74 in1007.1 mb 0.00 in0.0 mm 0.00 in/hr0.0 mm/hr 0.00 in0.0 mm
01:18 AM 69.3°F20.7°C 45.8°F7.7°C 43% 3.0 mph NNW4.8 kmh NNW 6.0 mph9.7 kmh 29.74 in1007.1 mb 0.00 in0.0 mm 0.00 in/hr0.0 mm/hr 0.00 in0.0 mm
01:08 AM 69.6°F20.9°C 45.5°F7.5°C 42% 3.0 mph NNW4.8 kmh NNW 7.0 mph11.3 kmh 29.75 in1007.5 mb 0.00 in0.0 mm 0.00 in/hr0.0 mm/hr 0.00 in0.0 mm
12:58 AM 69.6°F20.9°C 45.5°F7.5°C 42% 3.0 mph N4.8 kmh N 5.0 mph8.0 kmh 29.75 in1007.5 mb 0.00 in0.0 mm 0.00 in/hr0.0 mm/hr 0.00 in0.0 mm
12:48 AM 70.0°F21.1°C 45.8°F7.7°C 42% 3.0 mph N4.8 kmh N 7.0 mph11.3 kmh 29.75 in1007.5 mb 0.00 in0.0 mm 0.00 in/hr0.0 mm/hr 0.00 in0.0 mm
12:38 AM 69.7°F20.9°C 45.6°F7.6°C 42% 4.0 mph NNW6.4 kmh NNW 6.0 mph9.7 kmh 29.74 in1007.1 mb 0.00 in0.0 mm 0.00 in/hr0.0 mm/hr 0.00 in0.0 mm
12:28 AM 68.6°F20.3°C 45.2°F7.3°C 43% 3.0 mph NNW4.8 kmh NNW 6.0 mph9.7 kmh 29.74 in1007.1 mb 0.00 in0.0 mm 0.00 in/hr0.0 mm/hr 0.00 in0.0 mm
12:18 AM 67.9°F19.9°C 44.6°F7.0°C 43% 3.0 mph N4.8 kmh N 6.0 mph9.7 kmh 29.74 in1007.1 mb 0.00 in0.0 mm 0.00 in/hr0.0 mm/hr 0.00 in0.0 mm
12:08 AM 67.4°F19.7°C 44.7°F7.1°C 44% 2.0 mph N3.2 kmh N 4.0 mph6.4 kmh 29.73 in1006.8 mb 0.00 in0.0 mm 0.00 in/hr0.0 mm/hr 0.00 in0.0 mm